Time;durP1;ratioP1;P1;durP2;ratioP2;P2;SDS_P1;SDS_P2;PMS_P1;PMS_P2;Temp;Humidity;BMP_temperature;BMP_pressure;BME280_temperature;BME280_humidity;BME280_pressure;Samples;Min_cycle;Max_cycle;Signal;HPM_P1;HPM_P2
2023/05/17 00:00:34;;;;;;;57.67;2.50;;;;;;;;;;5072695;28;20476;-67
2023/05/17 00:03:02;;;;;;;57.47;2.43;;;;;;;;;;5073389;28;20451;-67
2023/05/17 00:05:29;;;;;;;57.60;2.50;;;;;;;;;;5073479;28;20448;-67
2023/05/17 00:07:56;;;;;;;57.63;2.67;;;;;;;;;;5073574;28;20227;-67
2023/05/17 00:10:23;;;;;;;57.23;2.30;;;;;;;;;;5072582;28;21006;-67
2023/05/17 00:12:51;;;;;;;57.65;2.72;;;;;;;;;;5073224;28;20449;-67
2023/05/17 00:15:18;;;;;;;57.43;2.90;;;;;;;;;;5073026;28;20308;-67
2023/05/17 00:17:45;;;;;;;57.57;2.60;;;;;;;;;;5073169;28;20439;-67
2023/05/17 00:20:14;;;;;;;57.13;2.67;;;;;;;;;;5072224;28;20454;-67
2023/05/17 00:22:42;;;;;;;57.60;2.40;;;;;;;;;;5073119;28;20917;-67
2023/05/17 00:25:09;;;;;;;57.15;2.50;;;;;;;;;;5072753;28;20459;-67
2023/05/17 00:27:36;;;;;;;57.40;2.43;;;;;;;;;;5072542;28;20316;-67
2023/05/17 00:30:03;;;;;;;57.60;2.58;;;;;;;;;;5072075;28;20486;-67
2023/05/17 00:32:30;;;;;;;57.55;2.70;;;;;;;;;;5072830;28;20201;-67
2023/05/17 00:34:57;;;;;;;57.88;2.60;;;;;;;;;;5072215;28;20601;-67
2023/05/17 00:37:26;;;;;;;57.57;2.77;;;;;;;;;;5072281;28;20209;-67
2023/05/17 00:39:53;;;;;;;57.67;2.80;;;;;;;;;;5071811;28;20447;-67
2023/05/17 00:42:20;;;;;;;57.28;2.67;;;;;;;;;;5072602;28;20647;-67
2023/05/17 00:44:47;;;;;;;56.90;2.47;;;;;;;;;;5072569;28;20216;-67
2023/05/17 00:47:15;;;;;;;56.90;2.38;;;;;;;;;;5072477;28;20443;-67
2023/05/17 00:49:42;;;;;;;57.65;2.53;;;;;;;;;;5071700;28;20209;-67
2023/05/17 00:52:09;;;;;;;58.40;3.20;;;;;;;;;;5072158;28;20307;-67
2023/05/17 00:54:37;;;;;;;57.35;2.72;;;;;;;;;;5072105;28;20826;-67
2023/05/17 00:57:06;;;;;;;56.92;2.70;;;;;;;;;;5072095;28;20216;-67
2023/05/17 00:59:33;;;;;;;57.90;2.72;;;;;;;;;;5071685;28;20206;-67
2023/05/17 01:02:01;;;;;;;57.57;2.90;;;;;;;;;;5072268;28;20247;-67
2023/05/17 01:04:28;;;;;;;57.47;2.57;;;;;;;;;;5071874;28;20451;-67
2023/05/17 01:06:56;;;;;;;57.13;2.47;;;;;;;;;;5071943;28;20451;-67
2023/05/17 01:09:23;;;;;;;57.00;2.70;;;;;;;;;;5071321;28;20491;-67
2023/05/17 01:11:55;;;;;;;57.63;2.50;;;;;;;;;;5071814;28;21033;-67
2023/05/17 01:14:33;;;;;;;57.63;2.67;;;;;;;;;;5071909;28;20439;-67
2023/05/17 01:17:03;;;;;;;57.00;2.57;;;;;;;;;;5072147;28;20443;-67
2023/05/17 01:19:41;;;;;;;57.57;2.60;;;;;;;;;;5071357;28;20447;-67
2023/05/17 01:22:15;;;;;;;60.67;3.33;;;;;;;;;;5071947;28;20821;-67
2023/05/17 01:24:48;;;;;;;57.45;2.70;;;;;;;;;;5071517;28;20215;-67
2023/05/17 01:27:17;;;;;;;57.28;2.45;;;;;;;;;;5071765;28;20209;-67
2023/05/17 01:29:45;;;;;;;57.38;2.65;;;;;;;;;;5070711;28;20225;-67
2023/05/17 01:32:13;;;;;;;56.88;2.30;;;;;;;;;;5071719;28;20238;-67
2023/05/17 01:34:42;;;;;;;57.17;2.58;;;;;;;;;;5071779;28;20201;-67
2023/05/17 01:37:09;;;;;;;57.47;2.60;;;;;;;;;;5071730;28;20209;-68
2023/05/17 01:39:36;;;;;;;57.28;2.40;;;;;;;;;;5070716;28;20208;-67
2023/05/17 01:42:14;;;;;;;57.45;2.40;;;;;;;;;;5071395;28;20597;-67
2023/05/17 01:44:46;;;;;;;57.38;2.50;;;;;;;;;;5071502;28;20588;-67
2023/05/17 01:47:16;;;;;;;57.03;2.70;;;;;;;;;;5068004;28;20213;-67
2023/05/17 01:49:47;;;;;;;57.28;2.42;;;;;;;;;;5070812;28;20565;-67
2023/05/17 01:52:17;;;;;;;57.40;2.70;;;;;;;;;;5071088;28;20251;-67
2023/05/17 01:54:48;;;;;;;57.17;2.60;;;;;;;;;;5071372;28;20447;-67
2023/05/17 01:57:16;;;;;;;57.28;2.42;;;;;;;;;;5071549;28;20439;-67
2023/05/17 01:59:44;;;;;;;57.80;2.70;;;;;;;;;;5070453;28;20784;-67
2023/05/17 02:02:12;;;;;;;57.03;2.50;;;;;;;;;;5071185;28;20467;-67
2023/05/17 02:04:39;;;;;;;57.17;2.23;;;;;;;;;;5071073;28;20785;-67
2023/05/17 02:07:07;;;;;;;57.15;2.55;;;;;;;;;;5071447;28;20447;-67
2023/05/17 02:09:34;;;;;;;57.57;2.50;;;;;;;;;;5070482;28;20241;-67
2023/05/17 02:12:01;;;;;;;57.23;2.50;;;;;;;;;;5071274;28;20470;-67
2023/05/17 02:14:28;;;;;;;57.15;2.50;;;;;;;;;;5071318;28;20508;-67
2023/05/17 02:16:57;;;;;;;57.28;2.53;;;;;;;;;;5071321;28;20207;-67
2023/05/17 02:19:24;;;;;;;57.80;2.67;;;;;;;;;;5070510;28;20205;-67
2023/05/17 02:21:51;;;;;;;57.50;2.53;;;;;;;;;;5070919;28;20947;-67
2023/05/17 02:24:18;;;;;;;57.47;2.80;;;;;;;;;;5071053;28;20232;-67
2023/05/17 02:26:46;;;;;;;57.70;2.60;;;;;;;;;;5070976;28;20375;-67
2023/05/17 02:29:13;;;;;;;57.22;2.53;;;;;;;;;;5070292;28;20316;-67
2023/05/17 02:31:40;;;;;;;57.58;2.55;;;;;;;;;;5070608;28;20237;-67
2023/05/17 02:34:08;;;;;;;57.88;2.75;;;;;;;;;;5071128;28;20205;-67
2023/05/17 02:36:35;;;;;;;57.25;2.50;;;;;;;;;;5070847;28;20703;-67
2023/05/17 02:39:03;;;;;;;57.38;2.50;;;;;;;;;;5070243;28;20208;-67
2023/05/17 02:41:30;;;;;;;57.78;2.72;;;;;;;;;;5070991;28;20264;-67
2023/05/17 02:43:57;;;;;;;57.85;3.33;;;;;;;;;;5070714;28;20211;-67
2023/05/17 02:46:24;;;;;;;57.28;2.55;;;;;;;;;;5070628;28;20589;-67
2023/05/17 02:48:51;;;;;;;57.35;2.67;;;;;;;;;;5070069;28;20225;-67
2023/05/17 02:51:20;;;;;;;57.38;2.70;;;;;;;;;;5070597;28;20228;-67
2023/05/17 02:53:47;;;;;;;57.90;3.72;;;;;;;;;;5070734;28;20206;-67
2023/05/17 02:56:14;;;;;;;57.38;2.80;;;;;;;;;;5070621;28;20215;-67
2023/05/17 02:58:41;;;;;;;56.67;2.93;;;;;;;;;;5070543;28;20573;-67
2023/05/17 03:01:09;;;;;;;57.17;2.72;;;;;;;;;;5074624;28;20474;-67
2023/05/17 03:03:36;;;;;;;56.83;2.70;;;;;;;;;;5074292;28;20262;-67
2023/05/17 03:06:03;;;;;;;57.17;2.75;;;;;;;;;;5074675;28;20216;-67
2023/05/17 03:08:32;;;;;;;58.00;3.65;;;;;;;;;;5074155;28;20229;-67
2023/05/17 03:10:59;;;;;;;57.70;3.00;;;;;;;;;;5074451;28;20565;-67
2023/05/17 03:13:26;;;;;;;57.85;2.70;;;;;;;;;;5074059;28;20211;-67
2023/05/17 03:15:53;;;;;;;59.22;3.60;;;;;;;;;;5074327;28;20212;-67
2023/05/17 03:18:20;;;;;;;57.80;3.10;;;;;;;;;;5074017;28;20700;-67
2023/05/17 03:20:47;;;;;;;57.58;3.05;;;;;;;;;;5073625;28;20605;-67
2023/05/17 03:23:14;;;;;;;57.70;2.83;;;;;;;;;;5074076;28;20216;-67
2023/05/17 03:25:43;;;;;;;58.00;3.33;;;;;;;;;;5073918;28;20217;-67
2023/05/17 03:28:10;;;;;;;57.17;2.47;;;;;;;;;;5074021;28;20205;-67
2023/05/17 03:30:37;;;;;;;57.28;2.70;;;;;;;;;;5073332;28;20602;-67
2023/05/17 03:33:04;;;;;;;57.38;2.78;;;;;;;;;;5073840;28;20215;-67
2023/05/17 03:35:31;;;;;;;57.17;2.50;;;;;;;;;;5074127;28;20205;-67
2023/05/17 03:37:58;;;;;;;57.38;3.00;;;;;;;;;;5073739;28;20653;-67
2023/05/17 03:40:26;;;;;;;56.92;2.60;;;;;;;;;;5073135;28;20228;-67
2023/05/17 03:42:54;;;;;;;57.45;2.90;;;;;;;;;;5073644;28;20212;-67
2023/05/17 03:45:21;;;;;;;57.08;2.40;;;;;;;;;;5073930;28;20213;-67
2023/05/17 03:47:48;;;;;;;57.38;2.45;;;;;;;;;;5073634;28;20201;-67
2023/05/17 03:50:15;;;;;;;57.50;2.50;;;;;;;;;;5072903;28;20228;-67
2023/05/17 03:52:42;;;;;;;57.15;2.55;;;;;;;;;;5073250;28;20215;-67
2023/05/17 03:55:10;;;;;;;57.25;2.80;;;;;;;;;;5073445;28;20217;-67
2023/05/17 03:57:37;;;;;;;57.80;2.72;;;;;;;;;;5073725;28;20554;-67
2023/05/17 04:00:09;;;;;;;56.83;2.83;;;;;;;;;;5072861;28;20201;-67
2023/05/17 04:02:36;;;;;;;57.28;2.50;;;;;;;;;;5073421;28;20214;-67
2023/05/17 04:05:03;;;;;;;57.70;3.00;;;;;;;;;;5073620;28;20211;-67
2023/05/17 04:07:30;;;;;;;57.83;2.92;;;;;;;;;;5073081;28;20685;-67
2023/05/17 04:09:58;;;;;;;57.72;3.10;;;;;;;;;;5072485;28;20225;-67
2023/05/17 04:12:25;;;;;;;56.95;2.90;;;;;;;;;;5073332;28;20205;-67
2023/05/17 04:14:52;;;;;;;57.17;2.47;;;;;;;;;;5073054;28;20217;-67
2023/05/17 04:17:21;;;;;;;57.15;2.65;;;;;;;;;;5073307;28;20231;-67
2023/05/17 04:19:48;;;;;;;58.00;3.00;;;;;;;;;;5072764;28;20201;-67
2023/05/17 04:22:15;;;;;;;59.15;4.03;;;;;;;;;;5072737;28;20225;-67
2023/05/17 04:24:42;;;;;;;57.22;2.67;;;;;;;;;;5072913;28;20223;-67
2023/05/17 04:27:09;;;;;;;57.47;3.00;;;;;;;;;;5072800;28;20207;-67
2023/05/17 04:29:36;;;;;;;57.47;2.80;;;;;;;;;;5072271;28;20229;-67
2023/05/17 04:32:04;;;;;;;58.05;3.08;;;;;;;;;;5072699;28;20225;-67
2023/05/17 04:34:32;;;;;;;57.35;2.78;;;;;;;;;;5072614;28;20635;-67
2023/05/17 04:36:59;;;;;;;58.00;2.97;;;;;;;;;;5072585;28;20209;-67
2023/05/17 04:39:27;;;;;;;57.47;2.58;;;;;;;;;;5071878;28;20201;-67
2023/05/17 04:41:54;;;;;;;57.92;2.95;;;;;;;;;;5072747;28;20225;-67
2023/05/17 04:44:21;;;;;;;57.22;2.70;;;;;;;;;;5072199;28;20205;-67
2023/05/17 04:46:48;;;;;;;57.57;2.60;;;;;;;;;;5072391;28;20205;-67
2023/05/17 04:49:15;;;;;;;57.30;2.60;;;;;;;;;;5071409;28;20528;-67
2023/05/17 04:51:44;;;;;;;57.20;2.60;;;;;;;;;;5072472;28;20229;-67
2023/05/17 04:54:11;;;;;;;57.27;2.80;;;;;;;;;;5072488;28;20582;-67
2023/05/17 04:56:38;;;;;;;57.70;2.60;;;;;;;;;;5072211;28;20491;-67
2023/05/17 04:59:05;;;;;;;57.37;2.63;;;;;;;;;;5071690;28;20573;-67
2023/05/17 05:01:34;;;;;;;56.80;2.40;;;;;;;;;;5072307;28;20468;-67
2023/05/17 05:04:05;;;;;;;57.07;2.63;;;;;;;;;;5072338;28;20515;-67
2023/05/17 05:06:32;;;;;;;57.58;2.63;;;;;;;;;;5072289;28;20439;-67
2023/05/17 05:09:01;;;;;;;57.07;2.47;;;;;;;;;;5071194;28;20720;-67
2023/05/17 05:11:28;;;;;;;57.03;2.33;;;;;;;;;;5072004;28;20847;-67
2023/05/17 05:13:55;;;;;;;57.40;2.60;;;;;;;;;;5072149;28;20455;-67
2023/05/17 05:16:22;;;;;;;57.38;2.53;;;;;;;;;;5071717;28;20648;-67
2023/05/17 05:18:49;;;;;;;57.07;2.37;;;;;;;;;;5071324;28;20209;-67
2023/05/17 05:21:16;;;;;;;56.97;2.47;;;;;;;;;;5070900;28;20467;-67
2023/05/17 05:23:43;;;;;;;57.40;2.50;;;;;;;;;;5064540;28;20474;-67
2023/05/17 05:26:12;;;;;;;57.17;2.50;;;;;;;;;;5052789;28;20444;-67
2023/05/17 05:28:39;;;;;;;57.37;2.73;;;;;;;;;;5049565;28;20937;-67
2023/05/17 05:31:06;;;;;;;57.40;2.50;;;;;;;;;;5052092;28;20488;-67
2023/05/17 05:33:33;;;;;;;57.30;2.97;;;;;;;;;;5051819;28;20452;-67
2023/05/17 05:36:00;;;;;;;57.33;2.50;;;;;;;;;;5051966;28;20448;-67
2023/05/17 05:38:27;;;;;;;56.97;2.40;;;;;;;;;;5051532;28;20455;-67
2023/05/17 05:40:54;;;;;;;56.70;2.80;;;;;;;;;;5050745;28;20472;-67
2023/05/17 05:43:22;;;;;;;57.37;2.63;;;;;;;;;;5051664;28;20459;-67
2023/05/17 05:45:50;;;;;;;57.27;2.70;;;;;;;;;;5051412;28;20456;-67
2023/05/17 05:48:17;;;;;;;57.40;2.50;;;;;;;;;;5051503;28;20452;-67
2023/05/17 05:50:44;;;;;;;57.60;3.10;;;;;;;;;;5050810;28;20859;-67
2023/05/17 05:53:11;;;;;;;57.50;2.50;;;;;;;;;;5051538;28;20448;-69
2023/05/17 05:55:41;;;;;;;57.60;2.90;;;;;;;;;;5051246;28;20471;-69
2023/05/17 05:58:08;;;;;;;57.70;2.70;;;;;;;;;;5051397;28;20460;-69
2023/05/17 06:00:36;;;;;;;56.90;2.23;;;;;;;;;;5050625;28;20460;-69
2023/05/17 06:03:04;;;;;;;57.20;2.87;;;;;;;;;;5051321;28;20455;-69
2023/05/17 06:05:32;;;;;;;56.80;2.23;;;;;;;;;;5051072;28;20455;-70
2023/05/17 06:07:59;;;;;;;57.03;2.30;;;;;;;;;;5051130;28;20802;-69
2023/05/17 06:10:26;;;;;;;58.27;2.77;;;;;;;;;;5050359;28;20905;-69
2023/05/17 06:12:53;;;;;;;56.87;2.20;;;;;;;;;;5051256;28;20456;-69
2023/05/17 06:15:20;;;;;;;56.63;2.23;;;;;;;;;;5051056;28;20467;-70
2023/05/17 06:17:48;;;;;;;57.03;2.27;;;;;;;;;;5051199;28;20444;-69
2023/05/17 06:20:16;;;;;;;57.07;2.40;;;;;;;;;;5050092;28;20444;-67
2023/05/17 06:22:43;;;;;;;56.97;2.13;;;;;;;;;;5051222;28;20949;-69
2023/05/17 06:25:10;;;;;;;57.23;2.50;;;;;;;;;;5050975;28;20463;-69
2023/05/17 06:27:38;;;;;;;56.93;2.17;;;;;;;;;;5051218;28;20518;-69
2023/05/17 06:30:05;;;;;;;57.07;2.27;;;;;;;;;;5049981;28;20479;-69
2023/05/17 06:32:33;;;;;;;57.03;2.33;;;;;;;;;;5050810;28;20444;-69
2023/05/17 06:35:01;;;;;;;57.07;2.30;;;;;;;;;;5053877;28;20443;-69
2023/05/17 06:37:28;;;;;;;56.90;2.17;;;;;;;;;;5054771;28;20459;-70
2023/05/17 06:40:02;;;;;;;57.07;2.20;;;;;;;;;;5054069;28;20965;-67
2023/05/17 06:42:29;;;;;;;57.30;2.50;;;;;;;;;;5055004;28;20467;-67
2023/05/17 06:44:56;;;;;;;57.17;2.27;;;;;;;;;;5054815;28;20458;-67
2023/05/17 06:47:24;;;;;;;57.30;2.50;;;;;;;;;;5054663;28;20462;-67
2023/05/17 06:49:51;;;;;;;57.23;2.33;;;;;;;;;;5053672;28;20999;-68
2023/05/17 06:52:19;;;;;;;57.50;2.30;;;;;;;;;;5054791;28;20475;-68
2023/05/17 06:54:46;;;;;;;57.00;2.20;;;;;;;;;;5054595;28;20961;-68
2023/05/17 06:57:13;;;;;;;56.90;2.40;;;;;;;;;;5054672;28;20448;-68
2023/05/17 06:59:40;;;;;;;57.40;2.50;;;;;;;;;;5053770;28;20962;-68
2023/05/17 07:02:07;;;;;;;57.00;2.30;;;;;;;;;;5054666;28;20482;-68
2023/05/17 07:04:35;;;;;;;56.97;2.20;;;;;;;;;;5054283;28;20459;-68
2023/05/17 07:07:02;;;;;;;56.97;2.50;;;;;;;;;;5054672;28;20448;-68
2023/05/17 07:09:30;;;;;;;57.30;2.63;;;;;;;;;;5053499;28;20972;-68
2023/05/17 07:11:58;;;;;;;57.07;2.30;;;;;;;;;;5054367;28;20464;-68
2023/05/17 07:14:25;;;;;;;57.07;2.40;;;;;;;;;;5054292;28;20465;-68
2023/05/17 07:16:52;;;;;;;57.07;2.27;;;;;;;;;;5054173;28;20452;-68
2023/05/17 07:19:19;;;;;;;57.00;2.60;;;;;;;;;;5053536;28;20454;-67
2023/05/17 07:21:46;;;;;;;57.07;2.57;;;;;;;;;;5054033;28;20984;-67
2023/05/17 07:24:13;;;;;;;57.07;2.70;;;;;;;;;;5054171;28;20471;-67
2023/05/17 07:26:42;;;;;;;57.40;2.67;;;;;;;;;;5054118;28;20463;-67
2023/05/17 07:29:09;;;;;;;56.97;2.30;;;;;;;;;;5053277;28;20452;-67
2023/05/17 07:31:36;;;;;;;57.07;2.27;;;;;;;;;;5054004;28;20488;-67
2023/05/17 07:34:03;;;;;;;57.57;2.83;;;;;;;;;;5054030;28;20452;-67
2023/05/17 07:36:30;;;;;;;57.00;2.67;;;;;;;;;;5053840;28;20957;-67
2023/05/17 07:38:57;;;;;;;56.97;2.40;;;;;;;;;;5053178;28;20453;-67
2023/05/17 07:41:25;;;;;;;57.13;2.30;;;;;;;;;;5053951;28;20464;-67
2023/05/17 07:43:54;;;;;;;57.20;2.50;;;;;;;;;;5053679;28;20551;-67
2023/05/17 07:46:21;;;;;;;56.97;2.57;;;;;;;;;;5053069;28;20486;-67
2023/05/17 07:48:48;;;;;;;57.07;2.50;;;;;;;;;;5053079;28;20463;-67
2023/05/17 07:51:15;;;;;;;57.07;2.40;;;;;;;;;;5053541;28;20503;-67
2023/05/17 07:53:42;;;;;;;57.00;2.50;;;;;;;;;;5053782;28;20878;-67
2023/05/17 07:56:10;;;;;;;56.77;2.30;;;;;;;;;;5053584;28;20451;-67
2023/05/17 07:58:37;;;;;;;57.20;2.27;;;;;;;;;;5052598;28;20458;-67
2023/05/17 08:01:05;;;;;;;56.97;2.50;;;;;;;;;;5053660;28;20475;-67
2023/05/17 08:03:32;;;;;;;57.10;2.10;;;;;;;;;;5053659;28;20452;-68
2023/05/17 08:05:59;;;;;;;57.07;2.60;;;;;;;;;;5053171;28;20465;-70
2023/05/17 08:08:27;;;;;;;57.07;2.40;;;;;;;;;;5053418;28;20809;-70
2023/05/17 08:10:54;;;;;;;57.40;2.80;;;;;;;;;;5052505;28;20495;-70
2023/05/17 08:13:22;;;;;;;57.60;2.30;;;;;;;;;;5052925;28;20453;-70
2023/05/17 08:15:49;;;;;;;57.20;2.40;;;;;;;;;;5053013;28;20452;-70
2023/05/17 08:18:17;;;;;;;57.00;2.33;;;;;;;;;;5053208;28;20450;-70
2023/05/17 08:20:45;;;;;;;57.20;2.40;;;;;;;;;;5052324;28;20475;-70
2023/05/17 08:23:12;;;;;;;56.97;2.30;;;;;;;;;;5052961;28;20909;-70
2023/05/17 08:25:40;;;;;;;57.80;2.70;;;;;;;;;;5052778;28;20456;-70
2023/05/17 08:28:07;;;;;;;56.77;2.17;;;;;;;;;;5052977;28;20456;-71
2023/05/17 08:30:34;;;;;;;56.97;2.30;;;;;;;;;;5052482;28;20487;-70
2023/05/17 08:33:02;;;;;;;57.27;2.20;;;;;;;;;;5052786;28;20948;-70
2023/05/17 08:35:30;;;;;;;56.97;2.13;;;;;;;;;;5052844;28;20455;-70
2023/05/17 08:37:57;;;;;;;57.10;2.20;;;;;;;;;;5052862;28;20820;-70
2023/05/17 08:40:24;;;;;;;57.00;2.30;;;;;;;;;;5051729;28;20464;-70
2023/05/17 08:42:53;;;;;;;56.97;2.20;;;;;;;;;;5052819;28;20451;-70
2023/05/17 08:45:20;;;;;;;56.77;2.23;;;;;;;;;;5052785;28;20454;-70
2023/05/17 08:47:49;;;;;;;57.50;2.70;;;;;;;;;;5052760;28;20538;-70
2023/05/17 08:50:17;;;;;;;57.23;2.50;;;;;;;;;;5051504;28;20487;-70
2023/05/17 08:52:46;;;;;;;56.87;2.20;;;;;;;;;;5052201;28;20802;-70
2023/05/17 08:55:15;;;;;;;57.00;2.10;;;;;;;;;;5052286;28;20456;-70
2023/05/17 08:57:42;;;;;;;56.73;2.30;;;;;;;;;;5051771;28;20817;-71
2023/05/17 09:00:13;;;;;;;56.70;2.10;;;;;;;;;;5051324;28;20486;-70
2023/05/17 09:02:40;;;;;;;57.10;2.40;;;;;;;;;;5052280;28;20451;-70
2023/05/17 09:05:08;;;;;;;56.77;2.27;;;;;;;;;;5052257;28;20459;-71
2023/05/17 09:07:36;;;;;;;57.27;2.67;;;;;;;;;;5052278;28;20444;-70
2023/05/17 09:10:05;;;;;;;57.50;2.70;;;;;;;;;;5051456;28;20558;-70
2023/05/17 09:12:33;;;;;;;56.87;2.40;;;;;;;;;;5052128;28;20447;-70
2023/05/17 09:15:13;;;;;;;57.80;2.60;;;;;;;;;;5051786;28;20484;-70
2023/05/17 09:17:41;;;;;;;56.87;2.40;;;;;;;;;;5051908;28;20502;-71
2023/05/17 09:20:09;;;;;;;56.67;2.27;;;;;;;;;;5050837;28;20452;-70
2023/05/17 09:22:37;;;;;;;56.90;2.40;;;;;;;;;;5052036;28;20456;-70
2023/05/17 09:25:06;;;;;;;57.03;2.50;;;;;;;;;;5051680;28;20468;-70
2023/05/17 09:27:33;;;;;;;57.03;2.50;;;;;;;;;;5051816;28;20452;-70
2023/05/17 09:30:00;;;;;;;56.97;2.30;;;;;;;;;;5051022;28;20453;-70
2023/05/17 09:32:27;;;;;;;57.70;2.30;;;;;;;;;;5051478;28;20436;-71
2023/05/17 09:34:56;;;;;;;56.97;2.20;;;;;;;;;;5051752;28;20447;-70
2023/05/17 09:37:25;;;;;;;56.97;2.10;;;;;;;;;;5051653;28;20444;-70
2023/05/17 09:39:52;;;;;;;56.77;2.17;;;;;;;;;;5050854;28;20444;-70
2023/05/17 09:42:26;;;;;;;57.17;2.40;;;;;;;;;;5051685;28;20471;-70
2023/05/17 09:44:56;;;;;;;56.97;2.67;;;;;;;;;;5051324;28;20452;-71
2023/05/17 09:47:24;;;;;;;57.50;2.73;;;;;;;;;;5051935;28;20952;-70
2023/05/17 09:49:51;;;;;;;57.00;2.43;;;;;;;;;;5050586;28;20476;-71
2023/05/17 09:52:19;;;;;;;56.90;2.17;;;;;;;;;;5051254;28;20492;-70
2023/05/17 09:54:53;;;;;;;56.73;2.00;;;;;;;;;;5051260;28;20443;-71
2023/05/17 09:57:22;;;;;;;57.20;2.50;;;;;;;;;;5051271;28;20994;-70
2023/05/17 09:59:49;;;;;;;56.57;2.00;;;;;;;;;;5050562;28;20451;-71
2023/05/17 10:02:20;;;;;;;56.93;2.20;;;;;;;;;;5051330;28;20507;-70
2023/05/17 10:04:48;;;;;;;56.97;2.30;;;;;;;;;;5051443;28;20444;-71
2023/05/17 10:07:16;;;;;;;57.20;2.40;;;;;;;;;;5050966;28;21007;-71
2023/05/17 10:09:44;;;;;;;56.90;2.37;;;;;;;;;;5053697;28;20456;-70
2023/05/17 10:12:14;;;;;;;56.97;2.43;;;;;;;;;;5070761;28;20987;-70
2023/05/17 10:14:44;;;;;;;57.00;2.30;;;;;;;;;;5071002;28;20909;-70
2023/05/17 10:17:11;;;;;;;56.53;2.13;;;;;;;;;;5071217;28;20803;-70
2023/05/17 10:19:38;;;;;;;56.87;2.20;;;;;;;;;;5070537;28;20785;-70
2023/05/17 10:22:06;;;;;;;56.63;2.30;;;;;;;;;;5070860;28;20467;-70
2023/05/17 10:24:34;;;;;;;57.17;2.27;;;;;;;;;;5070712;28;20469;-70
2023/05/17 10:27:02;;;;;;;56.73;2.20;;;;;;;;;;5071442;28;20447;-70
2023/05/17 10:29:30;;;;;;;57.00;2.20;;;;;;;;;;5070322;28;20454;-70
2023/05/17 10:31:59;;;;;;;56.67;2.20;;;;;;;;;;5070754;28;20586;-70
2023/05/17 10:34:26;;;;;;;56.97;2.43;;;;;;;;;;5070936;28;20443;-70
2023/05/17 10:36:54;;;;;;;57.47;2.60;;;;;;;;;;5070783;28;20965;-70
2023/05/17 10:39:22;;;;;;;57.00;2.40;;;;;;;;;;5069997;28;20462;-70
2023/05/17 10:41:51;;;;;;;56.90;2.40;;;;;;;;;;5070985;28;20570;-70
2023/05/17 10:44:19;;;;;;;56.93;2.20;;;;;;;;;;5071057;28;20807;-70
2023/05/17 10:46:52;;;;;;;56.87;2.30;;;;;;;;;;5071019;28;20451;-70
2023/05/17 10:49:21;;;;;;;56.53;2.10;;;;;;;;;;5070058;28;20954;-70
2023/05/17 10:51:48;;;;;;;56.97;2.30;;;;;;;;;;5071005;28;20487;-70
2023/05/17 10:54:17;;;;;;;56.63;2.40;;;;;;;;;;5070831;28;20451;-70
2023/05/17 10:56:48;;;;;;;56.80;2.10;;;;;;;;;;5070713;28;20447;-70
2023/05/17 10:59:16;;;;;;;56.47;2.10;;;;;;;;;;5069990;28;20462;-70
2023/05/17 11:01:54;;;;;;;56.70;1.90;;;;;;;;;;5070553;28;20467;-70
2023/05/17 11:04:24;;;;;;;57.97;2.67;;;;;;;;;;5070870;28;20435;-70
2023/05/17 11:06:52;;;;;;;56.77;2.10;;;;;;;;;;5070902;28;20876;-71
2023/05/17 11:09:22;;;;;;;56.90;2.10;;;;;;;;;;5070011;28;20458;-70
2023/05/17 11:12:05;;;;;;;56.63;1.93;;;;;;;;;;5070544;28;20486;-70
2023/05/17 11:14:48;;;;;;;56.73;2.10;;;;;;;;;;5070365;28;20457;-70
2023/05/17 11:17:16;;;;;;;56.67;2.00;;;;;;;;;;5070739;28;20442;-70
2023/05/17 11:19:55;;;;;;;56.77;2.20;;;;;;;;;;5070542;28;20533;-70
2023/05/17 11:22:23;;;;;;;56.57;2.40;;;;;;;;;;5074089;28;20463;-70
2023/05/17 11:24:52;;;;;;;56.87;2.50;;;;;;;;;;5074048;28;20455;-70
2023/05/17 11:27:19;;;;;;;57.70;3.33;;;;;;;;;;5074246;28;20827;-70
2023/05/17 11:29:47;;;;;;;57.40;2.80;;;;;;;;;;5073538;28;20453;-70
2023/05/17 11:32:15;;;;;;;56.87;2.30;;;;;;;;;;5073711;28;20514;-70
2023/05/17 11:34:42;;;;;;;57.00;2.57;;;;;;;;;;5074094;28;20451;-70
2023/05/17 11:37:12;;;;;;;56.70;2.37;;;;;;;;;;5073562;28;20455;-70
2023/05/17 11:39:59;;;;;;;57.00;2.40;;;;;;;;;;5072636;28;20438;-70
2023/05/17 11:42:26;;;;;;;56.87;2.50;;;;;;;;;;5073719;28;20456;-70
2023/05/17 11:44:57;;;;;;;57.30;2.10;;;;;;;;;;5073386;28;20996;-70
2023/05/17 11:47:25;;;;;;;56.60;2.10;;;;;;;;;;5073255;28;20438;-70
2023/05/17 11:49:52;;;;;;;56.83;2.20;;;;;;;;;;5072912;28;20452;-70
2023/05/17 11:52:21;;;;;;;56.97;2.23;;;;;;;;;;5073225;28;20499;-70
2023/05/17 11:54:48;;;;;;;57.97;2.20;;;;;;;;;;5073807;28;20451;-70
2023/05/17 11:57:16;;;;;;;56.80;2.20;;;;;;;;;;5073193;28;20451;-70
2023/05/17 11:59:44;;;;;;;56.87;2.50;;;;;;;;;;5072879;28;20577;-70
2023/05/17 12:02:11;;;;;;;57.20;2.60;;;;;;;;;;5073017;28;20558;-70
2023/05/17 12:04:39;;;;;;;56.80;2.20;;;;;;;;;;5072869;28;20509;-70
2023/05/17 12:07:09;;;;;;;57.10;2.20;;;;;;;;;;5073312;28;20443;-70
2023/05/17 12:09:37;;;;;;;57.70;3.83;;;;;;;;;;5072361;28;20944;-70
2023/05/17 12:12:05;;;;;;;56.60;2.20;;;;;;;;;;5073123;28;20490;-70
2023/05/17 12:14:32;;;;;;;57.00;1.90;;;;;;;;;;5073415;28;20454;-70
2023/05/17 12:17:01;;;;;;;57.37;2.60;;;;;;;;;;5073328;28;20477;-70
2023/05/17 12:19:29;;;;;;;57.40;2.90;;;;;;;;;;5072493;28;21039;-70
2023/05/17 12:22:06;;;;;;;56.43;2.10;;;;;;;;;;5073221;28;20471;-70
2023/05/17 12:24:38;;;;;;;57.67;2.27;;;;;;;;;;5073007;28;20485;-70
2023/05/17 12:27:06;;;;;;;56.37;2.20;;;;;;;;;;5073292;28;20432;-70
2023/05/17 12:29:33;;;;;;;57.07;2.40;;;;;;;;;;5072281;28;20453;-70
2023/05/17 12:32:00;;;;;;;58.73;2.70;;;;;;;;;;5071472;28;20483;-70
2023/05/17 12:34:28;;;;;;;56.87;2.30;;;;;;;;;;5072971;28;20481;-70
2023/05/17 12:36:55;;;;;;;57.20;2.60;;;;;;;;;;5072810;28;20830;-70
2023/05/17 12:39:23;;;;;;;57.00;2.73;;;;;;;;;;5071952;28;20447;-70
2023/05/17 12:41:52;;;;;;;57.20;2.43;;;;;;;;;;5072788;28;20532;-69
2023/05/17 12:44:20;;;;;;;57.10;2.20;;;;;;;;;;5072457;28;20939;-69
2023/05/17 12:46:52;;;;;;;57.97;2.40;;;;;;;;;;5072724;28;20818;-69
2023/05/17 12:49:21;;;;;;;56.67;2.20;;;;;;;;;;5072002;28;20450;-69
2023/05/17 12:51:48;;;;;;;57.00;2.17;;;;;;;;;;5072535;28;20510;-69
2023/05/17 12:54:25;;;;;;;57.20;2.37;;;;;;;;;;5072811;28;20459;-69
2023/05/17 12:56:54;;;;;;;57.30;3.00;;;;;;;;;;5072538;28;20907;-70
2023/05/17 12:59:24;;;;;;;56.70;2.07;;;;;;;;;;5071655;28;20446;-69
2023/05/17 13:01:52;;;;;;;56.87;2.20;;;;;;;;;;5072395;28;20467;-69
2023/05/17 13:04:20;;;;;;;56.97;2.40;;;;;;;;;;5072406;28;20527;-69
2023/05/17 13:06:47;;;;;;;56.53;2.20;;;;;;;;;;5072348;28;20443;-69
2023/05/17 13:09:15;;;;;;;57.20;2.77;;;;;;;;;;5071118;28;20487;-70
2023/05/17 13:11:42;;;;;;;56.97;2.30;;;;;;;;;;5072070;28;20499;-70
2023/05/17 13:14:12;;;;;;;57.10;2.30;;;;;;;;;;5072229;28;20439;-70
2023/05/17 13:16:39;;;;;;;57.47;2.97;;;;;;;;;;5071877;28;20451;-69
2023/05/17 13:19:13;;;;;;;56.57;2.10;;;;;;;;;;5071154;28;20455;-70
2023/05/17 13:21:40;;;;;;;57.40;2.43;;;;;;;;;;5071952;28;20494;-69
2023/05/17 13:24:09;;;;;;;57.07;2.10;;;;;;;;;;5071766;28;20459;-69
2023/05/17 13:26:37;;;;;;;56.50;2.00;;;;;;;;;;5071314;28;20447;-69
2023/05/17 13:29:04;;;;;;;58.37;2.30;;;;;;;;;;5069482;28;20455;-69
2023/05/17 13:31:32;;;;;;;57.70;2.90;;;;;;;;;;5070200;28;20478;-69
2023/05/17 13:33:59;;;;;;;56.90;2.10;;;;;;;;;;5070911;28;20443;-69
2023/05/17 13:36:26;;;;;;;56.33;2.13;;;;;;;;;;5070818;28;20450;-69
2023/05/17 13:38:55;;;;;;;56.87;2.10;;;;;;;;;;5070467;28;20454;-69
2023/05/17 13:41:22;;;;;;;57.13;2.17;;;;;;;;;;5071092;28;20463;-69
2023/05/17 13:43:49;;;;;;;56.57;1.90;;;;;;;;;;5071208;28;20474;-69
2023/05/17 13:46:17;;;;;;;56.40;2.20;;;;;;;;;;5071441;28;20455;-70
2023/05/17 13:48:46;;;;;;;58.27;4.30;;;;;;;;;;5070464;28;20464;-70
2023/05/17 13:51:13;;;;;;;56.67;2.20;;;;;;;;;;5070864;28;20515;-70
2023/05/17 13:53:41;;;;;;;56.37;2.10;;;;;;;;;;5071408;28;20486;-70
2023/05/17 13:56:08;;;;;;;56.80;2.00;;;;;;;;;;5071256;28;20460;-70
2023/05/17 13:58:35;;;;;;;56.67;2.00;;;;;;;;;;5070531;28;20823;-70
2023/05/17 14:01:03;;;;;;;56.90;2.60;;;;;;;;;;5071419;28;20470;-70
2023/05/17 14:03:30;;;;;;;57.00;2.20;;;;;;;;;;5071112;28;20454;-70
2023/05/17 14:05:59;;;;;;;56.80;2.30;;;;;;;;;;5071346;28;20509;-70
2023/05/17 14:08:26;;;;;;;56.97;2.20;;;;;;;;;;5071163;28;20451;-70
2023/05/17 14:10:53;;;;;;;58.80;2.47;;;;;;;;;;5070478;28;20491;-70
2023/05/17 14:13:20;;;;;;;56.80;2.40;;;;;;;;;;5071330;28;20490;-70
2023/05/17 14:15:47;;;;;;;57.50;2.20;;;;;;;;;;5070896;28;20455;-69
2023/05/17 14:18:14;;;;;;;56.87;2.20;;;;;;;;;;5071215;28;20450;-70
2023/05/17 14:20:41;;;;;;;56.80;2.10;;;;;;;;;;5070552;28;20493;-70
2023/05/17 14:23:10;;;;;;;57.10;2.97;;;;;;;;;;5071076;28;20444;-70
2023/05/17 14:25:37;;;;;;;56.77;2.10;;;;;;;;;;5070819;28;20459;-70
2023/05/17 14:28:05;;;;;;;57.30;2.00;;;;;;;;;;5071187;28;20867;-70
2023/05/17 14:30:32;;;;;;;58.13;3.60;;;;;;;;;;5070059;28;20475;-70
2023/05/17 14:32:59;;;;;;;56.80;2.43;;;;;;;;;;5071069;28;20862;-70
2023/05/17 14:35:26;;;;;;;56.77;2.20;;;;;;;;;;5071210;28;20450;-70